createdAt,value
2018-06-29T00:00:27.700Z,25.70
2018-06-29T00:02:56.955Z,25.70
2018-06-29T00:05:27.048Z,25.70
2018-06-29T00:07:55.656Z,25.70
2018-06-29T00:10:25.412Z,25.70
2018-06-29T00:12:56.043Z,25.60
2018-06-29T00:15:24.821Z,25.60
2018-06-29T00:17:53.344Z,25.60
2018-06-29T00:20:21.839Z,25.60
2018-06-29T00:22:50.424Z,25.50
2018-06-29T00:25:18.990Z,25.50
2018-06-29T00:27:47.496Z,25.50
2018-06-29T00:30:16.091Z,25.40
2018-06-29T00:32:44.619Z,25.40
2018-06-29T00:35:13.102Z,25.30
2018-06-29T00:37:41.690Z,25.50
2018-06-29T00:40:10.201Z,25.50
2018-06-29T00:42:38.732Z,25.50
2018-06-29T00:45:07.256Z,25.40
2018-06-29T00:47:35.824Z,25.30
2018-06-29T00:50:05.044Z,25.30
2018-06-29T00:52:33.564Z,25.30
2018-06-29T00:55:02.089Z,25.20
2018-06-29T00:57:30.592Z,25.20
2018-06-29T00:59:59.172Z,25.20
2018-06-29T01:02:27.705Z,25.20
2018-06-29T01:04:56.384Z,25.10
2018-06-29T01:07:25.525Z,25.20
2018-06-29T01:09:54.224Z,25.10
2018-06-29T01:12:22.715Z,25.10
2018-06-29T01:14:51.255Z,25.10
2018-06-29T01:17:19.816Z,25.10
2018-06-29T01:19:48.310Z,25.10
2018-06-29T01:22:16.810Z,25.10
2018-06-29T01:27:13.611Z,25.20
2018-06-29T01:29:43.207Z,25.20
2018-06-29T01:32:11.769Z,25.20
2018-06-29T01:34:40.408Z,25.20
2018-06-29T01:37:08.944Z,25.20
2018-06-29T01:39:37.459Z,25.20
2018-06-29T01:42:06.042Z,25.20
2018-06-29T01:44:34.579Z,25.20
2018-06-29T01:47:03.116Z,25.20
2018-06-29T01:49:31.896Z,25.20
2018-06-29T01:52:00.436Z,25.10
2018-06-29T01:54:30.001Z,25.20
2018-06-29T01:56:58.524Z,25.20
2018-06-29T01:59:27.030Z,25.10
2018-06-29T02:01:56.337Z,25.10
2018-06-29T02:04:25.357Z,25.10
2018-06-29T02:06:54.912Z,25.00
2018-06-29T02:09:23.503Z,25.00
2018-06-29T02:11:52.253Z,24.90
2018-06-29T02:16:49.936Z,24.90
2018-06-29T02:19:18.449Z,24.90
2018-06-29T02:21:47.216Z,24.90
2018-06-29T02:24:15.843Z,24.90
2018-06-29T02:26:44.424Z,24.90
2018-06-29T02:29:12.964Z,24.90
2018-06-29T02:31:41.449Z,24.90
2018-06-29T02:34:10.010Z,24.90
2018-06-29T02:36:39.064Z,24.90
2018-06-29T02:39:09.721Z,24.80
2018-06-29T02:44:06.928Z,24.80
2018-06-29T02:46:36.722Z,24.80
2018-06-29T02:49:05.358Z,24.70
2018-06-29T02:51:33.993Z,24.70
2018-06-29T02:54:02.505Z,24.70
2018-06-29T02:56:31.047Z,24.70
2018-06-29T03:01:27.667Z,24.70
2018-06-29T03:03:57.208Z,24.60
2018-06-29T03:06:29.422Z,24.60
2018-06-29T03:08:57.972Z,24.60
2018-06-29T03:11:27.080Z,24.50
2018-06-29T03:13:55.655Z,24.50
2018-06-29T03:16:24.231Z,24.40
2018-06-29T03:18:52.702Z,24.40
2018-06-29T03:21:21.211Z,24.40
2018-06-29T03:23:49.755Z,24.30
2018-06-29T03:26:19.170Z,24.20
2018-06-29T03:28:50.872Z,24.20
2018-06-29T03:31:19.440Z,24.10
2018-06-29T03:33:48.035Z,24.10
2018-06-29T03:36:19.147Z,24.10
2018-06-29T03:38:47.637Z,24.10
2018-06-29T03:41:16.145Z,24.10
2018-06-29T03:43:48.645Z,24.10
2018-06-29T03:46:17.127Z,24.10
2018-06-29T03:48:48.112Z,24.10
2018-06-29T03:51:16.588Z,24.00
2018-06-29T03:53:45.103Z,24.00
2018-06-29T03:56:13.709Z,24.00
2018-06-29T03:58:42.157Z,24.00
2018-06-29T04:01:10.716Z,24.00
2018-06-29T04:03:39.221Z,24.00
2018-06-29T04:06:07.985Z,24.00
2018-06-29T04:08:36.505Z,24.00
2018-06-29T04:11:05.006Z,24.00
2018-06-29T04:16:01.661Z,24.10
2018-06-29T04:18:31.817Z,24.10
2018-06-29T04:21:00.393Z,24.10
2018-06-29T04:23:28.979Z,24.10
2018-06-29T04:25:57.504Z,24.10
2018-06-29T04:28:26.020Z,24.10
2018-06-29T04:30:54.500Z,24.00
2018-06-29T04:33:24.251Z,23.90
2018-06-29T04:35:52.798Z,23.90
2018-06-29T04:38:22.024Z,23.90
2018-06-29T04:40:50.503Z,24.00
2018-06-29T04:43:20.090Z,24.00
2018-06-29T04:45:48.725Z,24.10
2018-06-29T04:48:17.236Z,24.00
2018-06-29T04:50:45.780Z,24.10
2018-06-29T04:53:14.303Z,24.10
2018-06-29T04:55:42.811Z,24.20
2018-06-29T04:58:11.405Z,24.20
2018-06-29T05:00:39.971Z,24.20
2018-06-29T05:03:08.495Z,24.20
2018-06-29T05:05:37.069Z,24.10
2018-06-29T05:08:05.532Z,24.10
2018-06-29T05:10:34.221Z,24.20
2018-06-29T05:13:02.759Z,24.20
2018-06-29T05:15:32.513Z,24.20
2018-06-29T05:18:00.896Z,24.30
2018-06-29T05:20:29.596Z,24.40
2018-06-29T05:22:58.040Z,24.40
2018-06-29T05:25:26.616Z,24.50
2018-06-29T05:27:55.487Z,24.80
2018-06-29T05:30:23.939Z,26.40
2018-06-29T05:32:52.433Z,29.10
2018-06-29T05:35:22.679Z,31.90
2018-06-29T05:37:54.260Z,34.20
2018-06-29T05:40:22.799Z,36.20
2018-06-29T05:45:22.819Z,39.10
2018-06-29T05:47:53.617Z,40.20
2018-06-29T05:52:51.527Z,42.00
2018-06-29T05:55:24.210Z,42.40
2018-06-29T05:57:52.836Z,42.90
2018-06-29T06:00:22.707Z,43.40
2018-06-29T06:02:51.174Z,43.70
2018-06-29T06:05:20.247Z,44.30
2018-06-29T06:07:48.767Z,44.70
2018-06-29T06:10:17.283Z,45.20
2018-06-29T06:12:45.776Z,45.70
2018-06-29T06:15:14.377Z,46.10
2018-06-29T06:17:43.031Z,46.60
2018-06-29T06:20:14.436Z,47.10
2018-06-29T06:22:44.427Z,47.50
2018-06-29T06:25:13.304Z,47.60
2018-06-29T06:27:42.181Z,47.60
2018-06-29T06:30:11.378Z,47.70
2018-06-29T06:32:40.803Z,47.60
2018-06-29T06:35:09.369Z,47.90
2018-06-29T06:37:37.940Z,48.20
2018-06-29T06:40:07.328Z,48.10
2018-06-29T06:42:36.394Z,47.80
2018-06-29T06:45:05.737Z,47.20
2018-06-29T06:47:34.526Z,47.00
2018-06-29T06:50:04.252Z,47.00
2018-06-29T06:52:33.235Z,47.30
2018-06-29T06:55:01.739Z,47.20
2018-06-29T06:57:30.355Z,47.00
2018-06-29T07:04:56.382Z,46.10
2018-06-29T07:07:24.976Z,45.40
2018-06-29T07:09:53.646Z,44.50
2018-06-29T07:12:23.594Z,43.40
2018-06-29T07:14:52.787Z,42.00
2018-06-29T07:17:21.277Z,40.20
2018-06-29T07:19:50.211Z,38.30
2018-06-29T07:22:19.661Z,36.50
2018-06-29T07:24:48.530Z,34.80
2018-06-29T07:27:19.990Z,33.40
2018-06-29T07:29:48.815Z,32.50
2018-06-29T07:32:17.324Z,31.70
2018-06-29T07:34:46.141Z,31.10
2018-06-29T07:37:15.107Z,30.70
2018-06-29T07:39:43.844Z,30.20
2018-06-29T07:42:12.402Z,29.90
2018-06-29T07:44:41.841Z,29.70
2018-06-29T07:47:10.759Z,29.50
2018-06-29T07:49:39.307Z,29.50
2018-06-29T07:52:08.023Z,29.30
2018-06-29T07:54:38.945Z,29.20
2018-06-29T07:57:07.467Z,29.10
2018-06-29T07:59:36.171Z,29.00
2018-06-29T08:02:04.792Z,29.00
2018-06-29T08:04:33.379Z,28.80
2018-06-29T08:07:02.240Z,28.80
2018-06-29T08:09:30.805Z,28.80
2018-06-29T08:11:59.393Z,28.80
2018-06-29T08:14:28.403Z,28.80
2018-06-29T08:19:25.787Z,28.70
2018-06-29T08:21:54.275Z,28.70
2018-06-29T08:24:22.825Z,28.70
2018-06-29T08:26:51.564Z,28.70
2018-06-29T08:29:20.176Z,28.70
2018-06-29T08:31:48.897Z,28.70
2018-06-29T08:34:17.394Z,28.60
2018-06-29T08:36:47.131Z,28.70
2018-06-29T08:39:16.773Z,28.80
2018-06-29T08:41:45.295Z,28.70
2018-06-29T08:44:14.010Z,28.60
2018-06-29T08:46:42.748Z,28.60
2018-06-29T08:49:11.181Z,28.60
2018-06-29T08:51:40.984Z,28.50
2018-06-29T08:54:09.590Z,28.60
2018-06-29T08:56:39.157Z,28.60
2018-06-29T08:59:07.921Z,28.70
2018-06-29T09:01:36.491Z,28.80
2018-06-29T09:04:05.031Z,28.80
2018-06-29T09:06:33.544Z,28.80
2018-06-29T09:09:02.339Z,28.90
2018-06-29T09:11:30.899Z,29.00
2018-06-29T09:14:00.759Z,29.10
2018-06-29T09:16:29.455Z,29.00
2018-06-29T09:18:58.263Z,29.00
2018-06-29T09:21:27.200Z,29.00
2018-06-29T09:23:55.743Z,29.10
2018-06-29T09:26:24.507Z,29.10
2018-06-29T09:28:54.323Z,29.10
2018-06-29T09:31:22.821Z,29.10
2018-06-29T09:33:52.391Z,29.10
2018-06-29T09:36:21.960Z,29.10
2018-06-29T09:38:50.506Z,29.20
2018-06-29T09:41:20.628Z,29.20
2018-06-29T09:43:49.696Z,29.30
2018-06-29T09:46:18.302Z,29.30
2018-06-29T09:48:46.795Z,29.40
2018-06-29T09:51:15.363Z,29.40
2018-06-29T09:53:44.288Z,29.60
2018-06-29T09:56:13.135Z,29.40
2018-06-29T09:58:41.965Z,29.40
2018-06-29T10:01:10.595Z,29.60
2018-06-29T10:03:39.609Z,29.50
2018-06-29T10:06:08.140Z,29.60
2018-06-29T10:08:36.711Z,29.70
2018-06-29T10:11:05.472Z,29.60
2018-06-29T10:13:34.008Z,29.60
2018-06-29T10:16:02.505Z,29.70
2018-06-29T10:18:31.061Z,29.70
2018-06-29T10:20:59.585Z,29.80
2018-06-29T10:23:28.052Z,29.90
2018-06-29T10:25:56.946Z,30.00
2018-06-29T10:28:25.446Z,29.90
2018-06-29T10:30:54.016Z,30.00
2018-06-29T10:33:22.624Z,30.10
2018-06-29T10:35:51.110Z,30.10
2018-06-29T10:38:20.232Z,30.10
2018-06-29T10:40:48.775Z,30.20
2018-06-29T10:43:17.294Z,30.30
2018-06-29T10:45:45.771Z,30.30
2018-06-29T10:48:14.251Z,30.30
2018-06-29T10:50:42.752Z,30.20
2018-06-29T10:53:11.288Z,30.10
2018-06-29T10:55:39.861Z,30.10
2018-06-29T10:58:08.832Z,30.20
2018-06-29T11:00:37.433Z,30.30
2018-06-29T11:03:05.902Z,30.40
2018-06-29T11:05:34.530Z,30.40
2018-06-29T11:08:03.027Z,30.50
2018-06-29T11:10:31.595Z,30.50
2018-06-29T11:13:00.696Z,30.60
2018-06-29T11:15:29.181Z,30.60
2018-06-29T11:17:57.724Z,30.60
2018-06-29T11:20:26.192Z,30.80
2018-06-29T11:22:54.692Z,30.80
2018-06-29T11:25:23.240Z,30.90
2018-06-29T11:27:51.798Z,30.90
2018-06-29T11:30:22.490Z,31.00
2018-06-29T11:32:51.025Z,31.00
2018-06-29T11:35:19.644Z,31.00
2018-06-29T11:37:48.235Z,31.10
2018-06-29T11:40:16.875Z,31.20
2018-06-29T11:42:45.367Z,31.20
2018-06-29T11:45:13.947Z,31.20
2018-06-29T11:47:42.511Z,31.30
2018-06-29T11:50:11.108Z,31.40
2018-06-29T11:52:39.887Z,31.20
2018-06-29T11:55:09.431Z,31.20
2018-06-29T11:57:37.933Z,31.20
2018-06-29T12:00:06.600Z,31.20
2018-06-29T12:02:35.181Z,31.10
2018-06-29T12:05:04.530Z,31.10
2018-06-29T12:07:33.132Z,31.20
2018-06-29T12:10:01.780Z,31.40
2018-06-29T12:12:30.351Z,31.30
2018-06-29T12:14:59.950Z,31.20
2018-06-29T12:17:28.370Z,31.20
2018-06-29T12:19:56.892Z,31.20
2018-06-29T12:22:25.409Z,31.30
2018-06-29T12:27:22.169Z,31.50
2018-06-29T12:29:50.703Z,31.50
2018-06-29T12:32:19.273Z,31.40
2018-06-29T12:34:47.898Z,31.40
2018-06-29T12:37:16.616Z,31.30
2018-06-29T12:39:45.170Z,31.30
2018-06-29T12:42:13.754Z,31.40
2018-06-29T12:44:42.335Z,31.30
2018-06-29T12:49:39.184Z,31.40
2018-06-29T12:52:07.770Z,31.60
2018-06-29T12:54:36.251Z,31.60
2018-06-29T12:57:05.148Z,31.60
2018-06-29T12:59:34.532Z,31.60
2018-06-29T13:02:03.091Z,31.50
2018-06-29T13:04:31.668Z,31.50
2018-06-29T13:07:00.937Z,31.60
2018-06-29T13:09:29.494Z,31.60
2018-06-29T13:11:58.032Z,31.70
2018-06-29T13:14:26.653Z,31.70
2018-06-29T13:16:55.184Z,31.80
2018-06-29T13:19:24.036Z,31.90
2018-06-29T13:21:53.695Z,31.70
2018-06-29T13:24:22.420Z,31.80
2018-06-29T13:26:50.972Z,31.80
2018-06-29T13:29:20.199Z,31.80
2018-06-29T13:31:52.323Z,31.70
2018-06-29T13:34:21.060Z,31.70
2018-06-29T13:36:50.296Z,31.80
2018-06-29T13:39:19.025Z,31.80
2018-06-29T13:41:47.524Z,31.80
2018-06-29T13:44:16.241Z,31.80
2018-06-29T13:46:44.688Z,31.90
2018-06-29T13:49:13.175Z,31.90
2018-06-29T13:51:42.628Z,31.90
2018-06-29T14:00:02.033Z,31.90
2018-06-29T14:04:17.211Z,31.90
2018-06-29T14:27:22.737Z,30.90
2018-06-29T14:29:51.447Z,31.20
2018-06-29T14:32:20.347Z,31.40
2018-06-29T14:34:49.498Z,31.60
2018-06-29T14:39:46.489Z,31.90
2018-06-29T14:42:16.405Z,31.90
2018-06-29T14:44:45.106Z,31.90
2018-06-29T14:47:13.770Z,31.90
2018-06-29T14:49:42.607Z,31.90
2018-06-29T14:52:11.335Z,31.80
2018-06-29T14:57:08.437Z,31.90
2018-06-29T14:59:37.424Z,31.90
2018-06-29T15:02:06.793Z,32.00
2018-06-29T15:04:35.644Z,32.10
2018-06-29T15:07:05.189Z,32.00
2018-06-29T15:09:34.262Z,31.90
2018-06-29T15:12:03.534Z,31.90
2018-06-29T15:14:32.543Z,32.00
2018-06-29T15:17:05.681Z,32.00
2018-06-29T15:19:34.688Z,32.10
2018-06-29T15:22:03.747Z,32.10
2018-06-29T15:24:32.534Z,32.00
2018-06-29T15:27:01.368Z,32.00
2018-06-29T15:29:30.139Z,32.00
2018-06-29T15:32:00.116Z,32.00
2018-06-29T15:36:57.538Z,32.00
2018-06-29T15:39:26.412Z,32.10
2018-06-29T15:41:55.432Z,32.00
2018-06-29T15:44:23.989Z,32.00
2018-06-29T15:46:52.932Z,31.90
2018-06-29T15:49:21.624Z,31.90
2018-06-29T15:51:50.324Z,31.80
2018-06-29T15:54:19.929Z,31.90
2018-06-29T15:59:21.938Z,32.00
2018-06-29T16:02:07.422Z,31.90
2018-06-29T16:04:39.285Z,31.90
2018-06-29T16:07:10.482Z,31.90
2018-06-29T16:14:59.327Z,31.90
2018-06-29T16:17:27.967Z,32.00
2018-06-29T16:22:24.832Z,31.90
2018-06-29T16:24:53.504Z,31.90
2018-06-29T16:32:20.693Z,31.80
2018-06-29T16:37:18.310Z,31.70
2018-06-29T16:39:47.899Z,31.50
2018-06-29T16:44:22.660Z,31.40
2018-06-29T16:46:51.251Z,31.30
2018-06-29T16:49:19.869Z,31.30
2018-06-29T16:51:48.481Z,31.20
2018-06-29T16:54:17.070Z,31.20
2018-06-29T16:56:45.725Z,31.30
2018-06-29T17:01:42.700Z,31.40
2018-06-29T17:04:22.093Z,31.40
2018-06-29T17:06:53.258Z,31.40
2018-06-29T17:09:25.239Z,31.40
2018-06-29T17:11:55.462Z,31.40
2018-06-29T17:14:27.800Z,31.40
2018-06-29T17:16:58.288Z,31.40
2018-06-29T17:19:26.947Z,31.30
2018-06-29T17:21:55.683Z,31.30
2018-06-29T17:24:24.210Z,31.30
2018-06-29T17:26:52.828Z,31.30
2018-06-29T17:29:22.902Z,31.30
2018-06-29T17:31:54.339Z,31.40
2018-06-29T17:34:30.171Z,31.40
2018-06-29T17:36:58.970Z,31.50
2018-06-29T17:39:27.771Z,31.40
2018-06-29T17:41:56.612Z,31.40
2018-06-29T17:44:25.348Z,31.50
2018-06-29T17:51:52.893Z,31.70
2018-06-29T17:54:22.012Z,31.80
2018-06-29T17:56:50.700Z,31.80
2018-06-29T17:59:19.516Z,31.70
2018-06-29T18:04:18.510Z,31.80
2018-06-29T18:09:15.943Z,31.80
2018-06-29T18:11:45.600Z,31.80
2018-06-29T18:16:42.335Z,31.80
2018-06-29T18:19:10.931Z,31.80
2018-06-29T18:21:39.486Z,31.80
2018-06-29T18:24:08.164Z,31.70
2018-06-29T18:26:36.706Z,31.70
2018-06-29T18:29:05.926Z,31.70
2018-06-29T18:31:35.077Z,31.70
2018-06-29T18:36:32.033Z,31.50
2018-06-29T18:39:00.734Z,31.50
2018-06-29T18:41:29.303Z,31.40
2018-06-29T18:43:58.128Z,31.30
2018-06-29T18:46:26.696Z,31.20
2018-06-29T18:48:55.251Z,31.00
2018-06-29T18:51:24.592Z,30.90
2018-06-29T18:53:53.116Z,30.90
2018-06-29T18:56:21.662Z,30.80
2018-06-29T18:58:51.288Z,30.70
2018-06-29T19:01:19.881Z,30.60
2018-06-29T19:03:48.979Z,30.50
2018-06-29T19:06:17.643Z,30.40
2018-06-29T19:08:46.297Z,30.40
2018-06-29T19:11:15.147Z,30.30
2018-06-29T19:13:43.747Z,30.30
2018-06-29T19:16:15.366Z,30.20
2018-06-29T19:18:49.177Z,30.20
2018-06-29T19:21:18.394Z,30.10
2018-06-29T19:24:07.393Z,30.00
2018-06-29T19:26:36.051Z,30.00
2018-06-29T19:29:04.744Z,30.00
2018-06-29T19:31:33.401Z,30.00
2018-06-29T19:34:03.259Z,29.90
2018-06-29T19:36:31.908Z,29.90
2018-06-29T19:39:01.980Z,29.80
2018-06-29T19:41:30.639Z,29.70
2018-06-29T19:43:59.269Z,29.70
2018-06-29T19:46:27.968Z,29.70
2018-06-29T19:48:58.059Z,29.60
2018-06-29T19:51:26.571Z,29.50
2018-06-29T19:53:55.340Z,29.50
2018-06-29T19:56:24.756Z,29.50
2018-06-29T19:58:53.493Z,29.50
2018-06-29T20:01:22.028Z,29.50
2018-06-29T20:03:52.112Z,29.40
2018-06-29T20:06:24.297Z,29.40
2018-06-29T20:08:53.304Z,29.40
2018-06-29T20:11:22.016Z,29.40
2018-06-29T20:13:50.987Z,29.30
2018-06-29T20:16:20.294Z,29.30
2018-06-29T20:18:53.401Z,29.20
2018-06-29T20:21:22.330Z,29.20
2018-06-29T20:23:51.544Z,29.20
2018-06-29T20:26:21.299Z,29.10
2018-06-29T20:28:50.189Z,29.10
2018-06-29T20:31:19.076Z,29.00
2018-06-29T20:33:48.860Z,29.00
2018-06-29T20:36:32.236Z,29.00
2018-06-29T20:39:04.709Z,29.00
2018-06-29T20:41:38.645Z,29.00
2018-06-29T20:45:01.201Z,28.90
2018-06-29T20:47:31.227Z,28.80
2018-06-29T20:50:05.124Z,28.60
2018-06-29T20:52:44.786Z,28.50
2018-06-29T20:55:13.971Z,28.50
2018-06-29T21:00:33.036Z,28.40
2018-06-29T21:03:08.809Z,28.40
2018-06-29T21:05:54.511Z,28.40
2018-06-29T21:08:30.469Z,28.40
2018-06-29T21:11:04.441Z,28.30
2018-06-29T21:13:39.502Z,28.30
2018-06-29T21:16:08.070Z,28.30
2018-06-29T21:18:36.834Z,28.20
2018-06-29T21:21:07.067Z,28.10
2018-06-29T21:23:35.638Z,28.20
2018-06-29T21:26:04.555Z,28.10
2018-06-29T21:28:48.958Z,28.10
2018-06-29T21:31:19.754Z,28.10
2018-06-29T21:36:17.843Z,27.90
2018-06-29T21:41:18.028Z,27.90
2018-06-29T21:43:48.934Z,27.90
2018-06-29T21:46:17.880Z,27.70
2018-06-29T21:48:50.508Z,27.80
2018-06-29T21:51:23.405Z,27.80
2018-06-29T21:53:59.308Z,27.80
2018-06-29T21:56:28.653Z,27.70
2018-06-29T21:58:57.717Z,27.70
2018-06-29T22:03:55.151Z,27.60
2018-06-29T22:06:23.803Z,27.60
2018-06-29T22:08:54.045Z,27.50
2018-06-29T22:11:22.831Z,27.40
2018-06-29T22:13:56.709Z,27.50
2018-06-29T22:16:25.294Z,27.40
2018-06-29T22:18:54.075Z,27.40
2018-06-29T22:21:22.651Z,27.40
2018-06-29T22:23:51.257Z,27.30
2018-06-29T22:26:20.447Z,27.30
2018-06-29T22:31:17.345Z,27.30
2018-06-29T22:33:46.119Z,27.30
2018-06-29T22:36:14.721Z,27.30
2018-06-29T22:38:43.304Z,27.30
2018-06-29T22:41:11.851Z,27.20
2018-06-29T22:43:40.620Z,27.20
2018-06-29T22:48:37.495Z,27.10
2018-06-29T22:51:06.326Z,27.10
2018-06-29T22:53:34.950Z,27.10
2018-06-29T22:56:03.552Z,27.10
2018-06-29T22:58:32.284Z,27.00
2018-06-29T23:01:01.162Z,27.00
2018-06-29T23:03:35.140Z,27.00
2018-06-29T23:06:03.827Z,27.00
2018-06-29T23:08:32.553Z,26.90
2018-06-29T23:11:01.198Z,26.90
2018-06-29T23:13:33.377Z,26.80
2018-06-29T23:16:02.031Z,26.80
2018-06-29T23:18:30.680Z,26.80
2018-06-29T23:20:59.552Z,26.80
2018-06-29T23:23:28.253Z,26.80
2018-06-29T23:25:56.979Z,26.80
2018-06-29T23:28:25.633Z,26.80
2018-06-29T23:30:54.686Z,26.70
2018-06-29T23:33:23.313Z,26.70
2018-06-29T23:35:51.930Z,26.70
2018-06-29T23:40:49.099Z,26.60
2018-06-29T23:43:17.835Z,26.60
2018-06-29T23:45:46.472Z,26.50
2018-06-29T23:48:15.075Z,26.60
2018-06-29T23:50:43.683Z,26.60
2018-06-29T23:53:13.558Z,26.50
2018-06-29T23:55:42.202Z,26.50
2018-06-29T23:58:10.874Z,26.50
